createdAt,value
2022-11-02T00:01:27.223Z,9.76
2022-11-02T00:03:54.493Z,9.78
2022-11-02T00:06:21.856Z,9.76
2022-11-02T00:08:48.833Z,9.77
2022-11-02T00:11:18.212Z,9.76
2022-11-02T00:13:47.370Z,9.75
2022-11-02T00:16:19.285Z,9.74
2022-11-02T00:18:49.059Z,9.74
2022-11-02T00:21:18.786Z,9.74
2022-11-02T00:23:47.740Z,9.74
2022-11-02T00:26:16.905Z,9.74
2022-11-02T00:28:44.310Z,9.75
2022-11-02T00:31:11.494Z,9.76
2022-11-02T00:33:38.471Z,9.76
2022-11-02T00:36:05.876Z,9.77
2022-11-02T00:38:33.041Z,9.79
2022-11-02T00:41:00.227Z,9.78
2022-11-02T00:43:27.212Z,9.77
2022-11-02T00:45:54.401Z,9.78
2022-11-02T00:48:22.697Z,9.79
2022-11-02T00:50:50.025Z,9.78
2022-11-02T00:53:18.847Z,9.73
2022-11-02T00:55:54.012Z,9.69
2022-11-02T00:58:21.733Z,9.63
2022-11-02T01:00:50.530Z,9.59
2022-11-02T01:03:17.916Z,9.55
2022-11-02T01:05:45.086Z,9.53
2022-11-02T01:08:12.059Z,9.47
2022-11-02T01:10:42.723Z,9.47
2022-11-02T01:13:12.626Z,9.45
2022-11-02T01:15:40.304Z,9.45
2022-11-02T01:18:07.569Z,9.47
2022-11-02T01:20:35.220Z,9.51
2022-11-02T01:23:04.853Z,9.52
2022-11-02T01:25:32.041Z,9.53
2022-11-02T01:27:59.059Z,9.53
2022-11-02T01:30:26.227Z,9.55
2022-11-02T01:32:53.200Z,9.55
2022-11-02T01:35:22.815Z,9.59
2022-11-02T01:37:49.754Z,9.60
2022-11-02T01:40:19.237Z,9.63
2022-11-02T01:42:48.678Z,9.64
2022-11-02T01:45:15.836Z,9.65
2022-11-02T01:47:46.592Z,9.63
2022-11-02T01:50:21.037Z,9.62
2022-11-02T01:52:48.152Z,9.57
2022-11-02T01:55:26.765Z,9.52
2022-11-02T01:57:57.916Z,9.44
2022-11-02T02:00:25.346Z,9.37
2022-11-02T02:02:56.308Z,9.31
2022-11-02T02:05:24.915Z,9.25
2022-11-02T02:07:52.792Z,9.24
2022-11-02T02:10:20.758Z,9.23
2022-11-02T02:12:49.013Z,9.20
2022-11-02T02:15:25.369Z,9.19
2022-11-02T02:18:01.596Z,9.22
2022-11-02T02:20:42.196Z,9.21
2022-11-02T02:23:28.134Z,9.19
2022-11-02T02:26:23.489Z,9.20
2022-11-02T02:28:53.644Z,9.25
2022-11-02T02:31:40.340Z,9.26
2022-11-02T02:34:21.101Z,9.26
2022-11-02T02:37:34.381Z,9.33
2022-11-02T02:40:09.040Z,9.35
2022-11-02T02:42:46.468Z,9.37
2022-11-02T02:45:19.950Z,9.40
2022-11-02T02:48:01.082Z,9.41
2022-11-02T02:50:37.306Z,9.42
2022-11-02T02:53:07.349Z,9.43
2022-11-02T02:55:41.852Z,9.42
2022-11-02T02:58:15.690Z,9.43
2022-11-02T03:00:44.538Z,9.45
2022-11-02T03:03:24.708Z,9.49
2022-11-02T03:06:00.908Z,9.50
2022-11-02T03:08:28.688Z,9.52
2022-11-02T03:11:14.171Z,9.57
2022-11-02T03:14:17.051Z,9.61
2022-11-02T03:17:03.072Z,9.62
2022-11-02T03:19:44.451Z,9.64
2022-11-02T03:22:35.125Z,9.67
2022-11-02T03:25:19.315Z,9.69
2022-11-02T03:28:13.899Z,9.68
2022-11-02T03:30:50.788Z,9.70
2022-11-02T03:33:30.986Z,9.68
2022-11-02T03:36:10.819Z,9.69
2022-11-02T03:39:00.779Z,9.70
2022-11-02T03:41:33.135Z,9.71
2022-11-02T03:44:07.011Z,9.73
2022-11-02T03:46:38.196Z,9.71
2022-11-02T03:49:10.794Z,9.71
2022-11-02T03:51:43.725Z,9.72
2022-11-02T03:54:26.254Z,9.74
2022-11-02T03:56:59.937Z,9.74
2022-11-02T03:59:31.529Z,9.74
2022-11-02T04:02:00.713Z,9.78
2022-11-02T04:04:29.104Z,9.78
2022-11-02T04:06:57.078Z,9.80
2022-11-02T04:09:26.846Z,9.80
2022-11-02T04:12:12.756Z,9.79
2022-11-02T04:14:40.128Z,9.78
2022-11-02T04:17:37.477Z,9.78
2022-11-02T04:20:11.512Z,9.77
2022-11-02T04:22:58.047Z,9.78
2022-11-02T04:25:25.843Z,9.78
2022-11-02T04:28:14.822Z,9.78
2022-11-02T04:30:48.743Z,9.78
2022-11-02T04:33:34.631Z,9.80
2022-11-02T04:36:07.741Z,9.81
2022-11-02T04:38:42.047Z,9.81
2022-11-02T04:41:44.401Z,9.83
2022-11-02T04:44:26.283Z,9.84
2022-11-02T04:47:01.137Z,9.86
2022-11-02T04:49:32.077Z,9.87
2022-11-02T04:51:59.749Z,9.88
2022-11-02T04:54:28.938Z,9.88
2022-11-02T04:57:00.323Z,9.87
2022-11-02T04:59:29.155Z,9.85
2022-11-02T05:01:56.541Z,9.81
2022-11-02T05:04:23.752Z,9.75
2022-11-02T05:06:50.741Z,9.68
2022-11-02T05:09:19.389Z,9.63
2022-11-02T05:11:48.286Z,9.56
2022-11-02T05:14:16.524Z,9.51
2022-11-02T05:16:43.478Z,9.45
2022-11-02T05:19:12.418Z,9.39
2022-11-02T05:21:40.655Z,9.38
2022-11-02T05:24:08.387Z,9.37
2022-11-02T05:26:37.742Z,9.39
2022-11-02T05:29:05.856Z,9.43
2022-11-02T05:31:34.072Z,9.46
2022-11-02T05:34:01.298Z,9.50
2022-11-02T05:36:28.561Z,9.51
2022-11-02T05:38:56.390Z,9.51
2022-11-02T05:41:24.171Z,9.45
2022-11-02T05:43:54.521Z,9.38
2022-11-02T05:46:23.281Z,9.30
2022-11-02T05:48:50.570Z,9.22
2022-11-02T05:51:17.832Z,9.14
2022-11-02T05:53:45.160Z,9.08
2022-11-02T05:56:14.738Z,9.02
2022-11-02T05:58:41.941Z,9.00
2022-11-02T06:01:11.499Z,8.96
2022-11-02T06:03:38.736Z,8.92
2022-11-02T06:06:08.073Z,8.89
2022-11-02T06:08:36.970Z,8.86
2022-11-02T06:11:14.284Z,8.87
2022-11-02T06:13:42.325Z,8.92
2022-11-02T06:16:12.014Z,8.98
2022-11-02T06:18:39.493Z,9.03
2022-11-02T06:21:09.611Z,9.09
2022-11-02T06:23:37.506Z,9.23
2022-11-02T06:26:05.039Z,9.37
2022-11-02T06:28:32.521Z,9.56
2022-11-02T06:30:59.553Z,10.30
2022-11-02T06:33:29.993Z,11.17
2022-11-02T06:36:02.809Z,12.23
2022-11-02T06:38:30.411Z,13.19
2022-11-02T06:40:59.681Z,14.48
2022-11-02T06:43:26.934Z,15.40
2022-11-02T06:45:55.954Z,15.97
2022-11-02T06:48:23.811Z,15.02
2022-11-02T06:50:51.095Z,14.67
2022-11-02T06:53:18.534Z,14.51
2022-11-02T06:55:51.172Z,14.55
2022-11-02T06:58:18.425Z,15.27
2022-11-02T07:00:45.400Z,16.26
2022-11-02T07:03:12.732Z,17.35
2022-11-02T07:05:39.718Z,18.14
2022-11-02T07:08:07.047Z,18.45
2022-11-02T07:10:36.770Z,19.10
2022-11-02T07:13:06.828Z,19.75
2022-11-02T07:15:34.213Z,20.56
2022-11-02T07:18:02.200Z,21.37
2022-11-02T07:20:30.541Z,21.82
2022-11-02T07:23:02.306Z,22.00
2022-11-02T07:25:33.963Z,20.40
2022-11-02T07:28:04.899Z,18.83
2022-11-02T07:30:34.859Z,17.84
2022-11-02T07:33:02.354Z,17.11
2022-11-02T07:35:29.789Z,16.74
2022-11-02T07:38:02.650Z,17.42
2022-11-02T07:40:31.607Z,17.65
2022-11-02T07:42:59.268Z,18.02
2022-11-02T07:46:06.269Z,17.99
2022-11-02T07:48:33.554Z,17.66
2022-11-02T07:51:00.564Z,20.05
2022-11-02T07:53:27.893Z,20.42
2022-11-02T07:55:57.279Z,20.34
2022-11-02T07:58:24.484Z,20.10
2022-11-02T08:00:55.852Z,19.77
2022-11-02T08:03:26.677Z,19.60
2022-11-02T08:05:54.976Z,18.90
2022-11-02T08:08:23.556Z,18.32
2022-11-02T08:10:52.590Z,17.86
2022-11-02T08:13:23.359Z,17.64
2022-11-02T08:15:53.942Z,17.85
2022-11-02T08:18:41.342Z,18.24
2022-11-02T08:21:10.572Z,17.93
2022-11-02T08:23:38.060Z,18.07
2022-11-02T08:26:05.236Z,17.96
2022-11-02T08:28:40.239Z,18.01
2022-11-02T08:31:16.496Z,18.18
2022-11-02T08:33:44.895Z,18.09
2022-11-02T08:36:12.446Z,18.25
2022-11-02T08:38:40.120Z,18.28
2022-11-02T08:41:07.299Z,18.42
2022-11-02T08:43:34.769Z,18.42
2022-11-02T08:46:14.831Z,18.35
2022-11-02T08:48:43.381Z,18.26
2022-11-02T08:51:10.604Z,18.18
2022-11-02T08:53:38.231Z,18.09
2022-11-02T08:56:07.716Z,18.13
2022-11-02T08:58:35.082Z,18.20
2022-11-02T09:01:02.218Z,18.09
2022-11-02T09:03:29.497Z,18.20
2022-11-02T09:06:02.158Z,18.46
2022-11-02T09:08:30.546Z,18.73
2022-11-02T09:11:00.406Z,18.70
2022-11-02T09:13:28.121Z,18.70
2022-11-02T09:16:00.833Z,18.97
2022-11-02T09:18:28.906Z,18.94
2022-11-02T09:20:56.472Z,19.09
2022-11-02T09:23:25.019Z,19.12
2022-11-02T09:25:52.282Z,19.27
2022-11-02T09:28:19.637Z,19.42
2022-11-02T09:30:46.728Z,19.30
2022-11-02T09:33:14.187Z,19.06
2022-11-02T09:35:44.407Z,19.08
2022-11-02T09:38:12.660Z,18.88
2022-11-02T09:40:43.567Z,18.70
2022-11-02T09:43:30.960Z,18.62
2022-11-02T09:46:09.695Z,18.71
2022-11-02T09:48:45.464Z,18.70
2022-11-02T09:51:16.486Z,18.71
2022-11-02T09:54:05.684Z,18.58
2022-11-02T09:56:34.728Z,18.57
2022-11-02T09:59:15.894Z,18.62
2022-11-02T10:01:56.251Z,18.63
2022-11-02T10:04:50.973Z,18.65
2022-11-02T10:07:49.096Z,18.68
2022-11-02T10:10:29.535Z,18.82
2022-11-02T10:13:15.409Z,18.78
2022-11-02T10:16:03.344Z,18.92
2022-11-02T10:18:31.355Z,18.98
2022-11-02T10:21:02.281Z,19.11
2022-11-02T10:23:34.661Z,19.09
2022-11-02T10:26:06.915Z,19.03
2022-11-02T10:28:37.473Z,19.03
2022-11-02T10:31:22.298Z,19.03
2022-11-02T10:33:52.839Z,18.98
2022-11-02T10:36:23.126Z,19.05
2022-11-02T10:39:35.202Z,19.09
2022-11-02T10:42:24.080Z,19.09
2022-11-02T10:45:02.825Z,19.04
2022-11-02T10:47:44.049Z,18.99
2022-11-02T10:50:20.557Z,18.96
2022-11-02T10:52:48.218Z,18.86
2022-11-02T10:55:39.683Z,18.93
2022-11-02T10:58:13.990Z,19.06
2022-11-02T11:00:42.962Z,19.03
2022-11-02T11:03:18.301Z,19.03
2022-11-02T11:05:51.789Z,19.04
2022-11-02T11:08:31.118Z,19.03
2022-11-02T11:11:14.746Z,19.06
2022-11-02T11:16:44.820Z,19.17
2022-11-02T11:19:40.615Z,19.05
2022-11-02T11:22:28.620Z,19.10
2022-11-02T11:25:25.859Z,19.14
2022-11-02T11:27:58.842Z,19.16
2022-11-02T11:30:59.040Z,19.09
2022-11-02T11:33:24.214Z,19.05
2022-11-02T11:35:54.838Z,19.04
2022-11-02T11:38:24.509Z,18.99
2022-11-02T11:40:58.278Z,19.01
2022-11-02T11:43:28.423Z,18.96
2022-11-02T11:46:05.727Z,19.00
2022-11-02T11:48:39.735Z,19.06
2022-11-02T11:51:42.376Z,18.98
2022-11-02T11:54:23.973Z,19.01
2022-11-02T11:56:54.593Z,18.90
2022-11-02T11:59:41.751Z,18.95
2022-11-02T12:02:27.788Z,18.98
2022-11-02T12:05:18.024Z,18.92
2022-11-02T12:08:15.806Z,18.93
2022-11-02T12:10:58.060Z,18.87
2022-11-02T12:13:50.428Z,18.81
2022-11-02T12:16:39.685Z,18.74
2022-11-02T12:19:22.707Z,18.78
2022-11-02T12:22:07.199Z,18.78
2022-11-02T12:24:43.603Z,18.81
2022-11-02T12:27:24.813Z,18.87
2022-11-02T12:29:58.738Z,18.90
2022-11-02T12:32:43.751Z,18.92
2022-11-02T12:35:32.852Z,18.94
2022-11-02T12:38:18.086Z,18.93
2022-11-02T12:40:54.765Z,18.90
2022-11-02T12:43:35.119Z,18.93
2022-11-02T12:46:04.566Z,18.94
2022-11-02T12:49:09.819Z,18.94
2022-11-02T12:51:44.591Z,18.75
2022-11-02T12:54:20.351Z,18.72
2022-11-02T12:56:50.733Z,18.63
2022-11-02T12:59:26.520Z,18.61
2022-11-02T13:02:28.074Z,18.60
2022-11-02T13:05:02.138Z,18.57
2022-11-02T13:07:44.645Z,18.53
2022-11-02T13:10:34.826Z,18.51
2022-11-02T13:13:04.842Z,18.45
2022-11-02T13:15:35.328Z,18.41
2022-11-02T13:18:24.475Z,18.33
2022-11-02T13:20:58.491Z,18.30
2022-11-02T13:23:40.857Z,18.27
2022-11-02T13:26:37.904Z,18.21
2022-11-02T13:29:12.551Z,18.16
2022-11-02T13:31:47.407Z,18.09
2022-11-02T13:34:19.971Z,18.11
2022-11-02T13:36:49.235Z,18.03
2022-11-02T13:39:26.872Z,17.97
2022-11-02T13:42:12.466Z,17.89
2022-11-02T13:45:14.155Z,17.77
2022-11-02T13:48:00.887Z,17.60
2022-11-02T13:50:28.547Z,17.41
2022-11-02T13:53:08.848Z,17.28
2022-11-02T13:56:05.829Z,17.14
2022-11-02T13:58:36.137Z,17.07
2022-11-02T14:01:06.712Z,16.95
2022-11-02T14:03:45.525Z,16.87
2022-11-02T14:06:15.553Z,16.80
2022-11-02T14:08:53.756Z,16.76
2022-11-02T14:11:20.983Z,16.64
2022-11-02T14:13:54.210Z,16.59
2022-11-02T14:16:50.529Z,16.57
2022-11-02T14:19:19.128Z,16.48
2022-11-02T14:21:59.556Z,16.50
2022-11-02T14:24:32.779Z,16.52
2022-11-02T14:27:04.807Z,16.45
2022-11-02T14:29:47.147Z,16.36
2022-11-02T14:32:19.993Z,16.34
2022-11-02T14:35:04.368Z,16.19
2022-11-02T14:37:45.719Z,16.19
2022-11-02T14:40:32.064Z,16.06
2022-11-02T14:43:36.641Z,15.99
2022-11-02T14:46:48.938Z,15.94
2022-11-02T14:49:23.255Z,15.89
2022-11-02T14:52:13.618Z,15.80
2022-11-02T14:55:08.499Z,15.64
2022-11-02T14:57:40.364Z,15.61
2022-11-02T15:00:20.042Z,15.54
2022-11-02T15:02:48.431Z,15.56
2022-11-02T15:05:29.568Z,15.44
2022-11-02T15:08:09.954Z,15.38
2022-11-02T15:10:46.905Z,15.33
2022-11-02T15:13:19.988Z,15.29
2022-11-02T15:15:50.531Z,15.20
2022-11-02T15:18:29.971Z,15.07
2022-11-02T15:21:17.845Z,14.93
2022-11-02T15:24:09.823Z,14.85
2022-11-02T15:26:53.086Z,14.68
2022-11-02T15:29:43.671Z,14.68
2022-11-02T15:32:23.099Z,14.66
2022-11-02T15:34:53.904Z,14.70
2022-11-02T15:37:27.209Z,14.62
2022-11-02T15:39:57.227Z,14.59
2022-11-02T15:42:41.159Z,14.45
2022-11-02T15:45:49.361Z,14.28
2022-11-02T15:48:31.888Z,14.22
2022-11-02T15:51:17.783Z,14.09
2022-11-02T15:53:56.248Z,14.00
2022-11-02T15:56:34.279Z,13.93
2022-11-02T15:59:01.559Z,13.78
2022-11-02T16:01:30.003Z,13.72
2022-11-02T16:04:02.208Z,13.66
2022-11-02T16:06:37.208Z,13.64
2022-11-02T16:09:30.355Z,13.53
2022-11-02T16:12:12.469Z,13.42
2022-11-02T16:14:40.947Z,13.38
2022-11-02T16:17:20.006Z,13.40
2022-11-02T16:19:49.390Z,13.30
2022-11-02T16:22:27.173Z,13.28
2022-11-02T16:24:55.253Z,13.21
2022-11-02T16:27:23.472Z,13.13
2022-11-02T16:29:52.362Z,13.08
2022-11-02T16:32:20.206Z,13.07
2022-11-02T16:34:49.096Z,13.05
2022-11-02T16:37:18.859Z,13.06
2022-11-02T16:39:47.807Z,13.07
2022-11-02T16:42:24.073Z,13.06
2022-11-02T16:44:57.575Z,13.03
2022-11-02T16:47:34.366Z,13.00
2022-11-02T16:50:04.279Z,13.06
2022-11-02T16:52:37.019Z,12.98
2022-11-02T16:55:43.751Z,12.96
2022-11-02T16:58:23.656Z,12.92
2022-11-02T17:00:59.724Z,12.90
2022-11-02T17:03:30.177Z,12.81
2022-11-02T17:06:04.054Z,12.77
2022-11-02T17:08:37.286Z,12.72
2022-11-02T17:11:08.227Z,12.70
2022-11-02T17:13:38.827Z,12.68
2022-11-02T17:16:12.042Z,12.65
2022-11-02T17:18:39.887Z,12.67
2022-11-02T17:21:14.573Z,12.80
2022-11-02T17:23:47.547Z,12.82
2022-11-02T17:26:26.649Z,12.76
2022-11-02T17:28:56.959Z,12.79
2022-11-02T17:31:31.825Z,12.81
2022-11-02T17:34:10.362Z,12.89
2022-11-02T17:36:43.931Z,12.87
2022-11-02T17:39:15.172Z,12.94
2022-11-02T17:42:05.903Z,12.99
2022-11-02T17:44:37.770Z,12.94
2022-11-02T17:47:14.442Z,12.97
2022-11-02T17:49:45.698Z,12.95
2022-11-02T17:52:18.946Z,12.85
2022-11-02T17:54:46.699Z,12.79
2022-11-02T17:57:15.496Z,12.72
2022-11-02T17:59:44.123Z,12.64
2022-11-02T18:02:16.384Z,12.56
2022-11-02T18:04:45.685Z,12.48
2022-11-02T18:07:13.997Z,12.43
2022-11-02T18:09:47.251Z,12.34
2022-11-02T18:12:18.089Z,12.24
2022-11-02T18:14:48.155Z,12.17
2022-11-02T18:17:17.405Z,12.11
2022-11-02T18:19:47.233Z,12.04
2022-11-02T18:22:16.196Z,11.98
2022-11-02T18:24:45.041Z,11.92
2022-11-02T18:27:13.506Z,11.88
2022-11-02T18:29:41.889Z,11.85
2022-11-02T18:32:11.308Z,11.84
2022-11-02T18:34:39.879Z,11.79
2022-11-02T18:37:09.770Z,11.77
2022-11-02T18:39:38.936Z,11.76
2022-11-02T18:42:08.165Z,11.79
2022-11-02T18:44:36.420Z,11.76
2022-11-02T18:47:04.981Z,11.77
2022-11-02T18:49:34.706Z,11.74
2022-11-02T18:52:03.229Z,11.73
2022-11-02T18:54:31.894Z,11.78
2022-11-02T18:57:00.280Z,11.77
2022-11-02T18:59:30.807Z,11.76
2022-11-02T19:02:05.767Z,11.76
2022-11-02T19:04:37.010Z,11.73
2022-11-02T19:07:24.279Z,11.79
2022-11-02T19:09:56.478Z,11.82
2022-11-02T19:12:30.149Z,11.88
2022-11-02T19:14:59.273Z,11.98
2022-11-02T19:17:28.466Z,11.94
2022-11-02T19:19:57.556Z,11.96
2022-11-02T19:22:27.782Z,11.98
2022-11-02T19:24:55.690Z,12.10
2022-11-02T19:27:26.296Z,12.02
2022-11-02T19:29:54.370Z,12.02
2022-11-02T19:32:24.826Z,11.98
2022-11-02T19:34:53.739Z,11.93
2022-11-02T19:37:23.203Z,11.87
2022-11-02T19:39:51.443Z,11.83
2022-11-02T19:42:19.986Z,11.87
2022-11-02T19:44:50.404Z,11.80
2022-11-02T19:47:19.411Z,11.72
2022-11-02T19:49:50.901Z,11.81
2022-11-02T19:52:24.327Z,11.75
2022-11-02T19:54:57.310Z,11.72
2022-11-02T19:57:29.342Z,11.72
2022-11-02T20:00:01.577Z,11.68
2022-11-02T20:02:39.505Z,11.70
2022-11-02T20:05:08.680Z,11.65
2022-11-02T20:07:37.444Z,11.68
2022-11-02T20:10:08.683Z,11.70
2022-11-02T20:12:37.759Z,11.72
2022-11-02T20:15:08.469Z,11.67
2022-11-02T20:17:52.045Z,11.71
2022-11-02T20:20:28.790Z,11.69
2022-11-02T20:23:01.347Z,11.85
2022-11-02T20:25:31.689Z,11.83
2022-11-02T20:28:00.207Z,11.87
2022-11-02T20:30:30.703Z,11.80
2022-11-02T20:33:01.298Z,11.60
2022-11-02T20:35:29.520Z,11.46
2022-11-02T20:37:58.574Z,11.30
2022-11-02T20:40:35.310Z,11.24
2022-11-02T20:43:07.760Z,11.15
2022-11-02T20:45:37.356Z,11.03
2022-11-02T20:48:05.964Z,10.95
2022-11-02T20:50:34.452Z,10.86
2022-11-02T20:53:04.207Z,10.80
2022-11-02T20:55:35.426Z,10.73
2022-11-02T20:58:04.004Z,10.74
2022-11-02T21:00:32.323Z,10.72
2022-11-02T21:03:02.313Z,10.66
2022-11-02T21:05:31.299Z,10.58
2022-11-02T21:07:59.377Z,10.55
2022-11-02T21:10:27.342Z,10.48
2022-11-02T21:13:13.953Z,10.40
2022-11-02T21:15:41.312Z,10.37
2022-11-02T21:18:08.985Z,10.41
2022-11-02T21:20:36.550Z,10.30
2022-11-02T21:23:05.740Z,10.26
2022-11-02T21:25:33.934Z,10.25
2022-11-02T21:28:01.595Z,10.19
2022-11-02T21:30:31.158Z,10.15
2022-11-02T21:32:59.278Z,10.12
2022-11-02T21:35:26.679Z,10.19
2022-11-02T21:38:02.478Z,10.18
2022-11-02T21:40:32.415Z,10.23
2022-11-02T21:42:59.780Z,10.10
2022-11-02T21:45:26.826Z,10.09
2022-11-02T21:47:54.187Z,10.06
2022-11-02T21:50:21.387Z,10.06
2022-11-02T21:52:48.864Z,10.02
2022-11-02T21:55:15.891Z,10.03
2022-11-02T21:57:45.473Z,10.03
2022-11-02T22:00:12.967Z,10.03
2022-11-02T22:02:42.699Z,10.00
2022-11-02T22:05:29.697Z,9.99
2022-11-02T22:08:16.000Z,9.96
2022-11-02T22:10:45.395Z,9.99
2022-11-02T22:13:31.358Z,9.89
2022-11-02T22:16:06.213Z,9.88
2022-11-02T22:18:33.479Z,9.90
2022-11-02T22:21:00.494Z,9.90
2022-11-02T22:23:30.409Z,9.72
2022-11-02T22:25:59.311Z,9.71
2022-11-02T22:28:35.360Z,9.77
2022-11-02T22:31:06.613Z,9.73
2022-11-02T22:33:34.894Z,9.63
2022-11-02T22:36:09.522Z,9.58
2022-11-02T22:38:51.134Z,9.51
2022-11-02T22:41:22.194Z,9.53
2022-11-02T22:43:52.646Z,9.49
2022-11-02T22:46:20.563Z,9.44
2022-11-02T22:48:52.656Z,9.38
2022-11-02T22:51:22.202Z,9.21
2022-11-02T22:53:50.342Z,9.02
2022-11-02T22:56:21.755Z,8.89
2022-11-02T22:58:52.450Z,8.76
2022-11-02T23:01:22.695Z,8.63
2022-11-02T23:03:51.260Z,8.53
2022-11-02T23:06:25.890Z,8.40
2022-11-02T23:08:55.181Z,8.34
2022-11-02T23:11:25.160Z,8.28
2022-11-02T23:14:01.463Z,8.23
2022-11-02T23:16:31.574Z,8.19
2022-11-02T23:19:31.046Z,8.14
2022-11-02T23:22:24.910Z,8.09
2022-11-02T23:25:11.418Z,8.04
2022-11-02T23:28:02.508Z,8.05
2022-11-02T23:30:54.057Z,7.99
2022-11-02T23:33:23.019Z,7.99
2022-11-02T23:36:09.248Z,8.15
2022-11-02T23:38:54.692Z,8.09
2022-11-02T23:41:22.075Z,8.07
2022-11-02T23:43:49.024Z,8.06
2022-11-02T23:46:17.619Z,7.98
2022-11-02T23:48:47.189Z,7.95
2022-11-02T23:51:35.634Z,7.92
2022-11-02T23:54:21.210Z,7.80
2022-11-02T23:56:50.131Z,7.77
2022-11-02T23:59:18.183Z,7.79
